Time,TemperatureF,DewpointF,PressureIn,WindDirection,WindDirectionDegrees,WindSpeedMPH,WindSpeedGustMPH,Humidity,HourlyPrecipIn,Conditions,Clouds,dailyrainin,SoftwareType,DateUTC
2013-01-23 00:00:00,9.1,-17.6,29.50,WSW,254,4.6,10.5,24,0.00,,,0.00,WSDL version 342,2013-01-23 05:00:00,
2013-01-23 00:03:00,9.1,-17.6,29.50,West,264,4.5,10.3,24,0.00,,,0.00,WSDL version 342,2013-01-23 05:03:00,
2013-01-23 00:05:00,9.1,-17.6,29.50,NW,323,6.3,10.5,24,0.00,,,0.00,WSDL version 342,2013-01-23 05:05:00,
2013-01-23 00:07:00,9.1,-17.6,29.50,West,263,6.4,10.5,24,0.00,,,0.00,WSDL version 342,2013-01-23 05:07:00,
2013-01-23 00:12:00,9.1,-17.6,29.50,West,278,3.5,10.5,24,0.00,,,0.00,WSDL version 342,2013-01-23 05:12:00,
2013-01-23 00:17:00,9.0,-17.7,29.50,West,264,6.6,11.9,24,0.00,,,0.00,WSDL version 342,2013-01-23 05:17:00,
2013-01-23 00:22:00,9.1,-17.6,29.50,WSW,248,5.0,11.9,24,0.00,,,0.00,WSDL version 342,2013-01-23 05:22:00,
2013-01-23 00:27:00,9.0,-17.7,29.50,WSW,254,4.5,8.5,24,0.00,,,0.00,WSDL version 342,2013-01-23 05:27:00,
2013-01-23 00:33:00,9.0,-17.7,29.50,WSW,256,4.8,8.5,24,0.00,,,0.00,WSDL version 342,2013-01-23 05:33:00,
2013-01-23 00:38:00,8.9,-17.8,29.50,West,263,3.1,7.6,24,-99.99,,,-99.99,WSDL version 342,2013-01-23 05:38:00,
2013-01-23 00:43:00,8.8,-17.9,29.50,WSW,253,3.7,7.6,24,0.00,,,0.00,WSDL version 342,2013-01-23 05:43:00,
2013-01-23 00:48:00,8.6,-18.1,29.50,West,264,2.8,7.2,24,0.00,,,0.00,WSDL version 342,2013-01-23 05:48:00,
2013-01-23 00:53:00,8.5,-18.2,29.50,West,262,3.1,8.1,24,0.00,,,0.00,WSDL version 342,2013-01-23 05:53:00,
2013-01-23 00:58:00,8.4,-18.2,29.50,WSW,257,3.7,8.1,24,0.00,,,0.00,WSDL version 342,2013-01-23 05:58:00,
2013-01-23 01:03:00,8.5,-18.2,29.50,West,278,5.3,8.5,24,0.00,,,0.00,WSDL version 342,2013-01-23 06:03:00,
2013-01-23 01:08:00,8.5,-18.1,29.50,West,280,3.3,8.5,24,0.00,,,0.00,WSDL version 342,2013-01-23 06:08:00,
2013-01-23 01:14:00,8.4,-18.2,29.53,West,278,4.2,5.6,24,0.00,,,0.00,WSDL version 342,2013-01-23 06:14:00,
2013-01-23 01:19:00,8.5,-18.1,29.53,WSW,245,5.2,9.4,24,0.00,,,0.00,WSDL version 342,2013-01-23 06:19:00,
2013-01-23 01:24:00,8.5,-18.1,29.53,West,264,2.8,9.4,24,0.00,,,0.00,WSDL version 342,2013-01-23 06:24:00,
2013-01-23 01:29:00,8.4,-18.2,29.56,WSW,251,3.6,6.7,24,0.00,,,0.00,WSDL version 342,2013-01-23 06:29:00,
2013-01-23 01:34:00,8.4,-18.2,29.56,WNW,286,3.3,9.6,24,0.00,,,0.00,WSDL version 342,2013-01-23 06:34:00,
2013-01-23 01:39:00,8.3,-18.3,29.56,West,270,2.4,9.6,24,0.00,,,0.00,WSDL version 342,2013-01-23 06:39:00,
2013-01-23 01:45:00,8.1,-18.5,29.56,West,276,3.1,5.6,24,0.00,,,0.00,WSDL version 342,2013-01-23 06:45:00,
2013-01-23 01:50:00,8.1,-18.5,29.56,WSW,244,3.6,7.6,24,0.00,,,0.00,WSDL version 342,2013-01-23 06:50:00,
2013-01-23 01:55:00,8.1,-18.5,29.56,West,259,2.7,7.6,24,-99.99,,,-99.99,WSDL version 342,2013-01-23 06:55:00,
2013-01-23 02:00:00,8.1,-18.5,29.56,West,276,3.5,6.0,24,0.00,,,0.00,WSDL version 342,2013-01-23 07:00:00,
2013-01-23 02:05:00,8.1,-18.5,29.56,West,273,3.4,6.0,24,0.00,,,0.00,WSDL version 342,2013-01-23 07:05:00,
2013-01-23 02:10:00,8.1,-18.5,29.56,WSW,244,3.4,6.0,24,0.00,,,0.00,WSDL version 342,2013-01-23 07:10:00,
2013-01-23 02:15:00,8.1,-18.5,29.56,WSW,245,3.7,6.3,24,0.00,,,0.00,WSDL version 342,2013-01-23 07:15:00,
2013-01-23 02:20:00,8.1,-18.5,29.56,WSW,254,4.1,7.6,24,0.00,,,0.00,WSDL version 342,2013-01-23 07:20:00,
2013-01-23 02:25:00,8.1,-18.5,29.56,WNW,289,5.2,10.1,24,-99.99,,,-99.99,WSDL version 342,2013-01-23 07:25:00,
2013-01-23 02:30:00,8.1,-18.5,29.56,WSW,257,6.4,10.3,24,0.00,,,0.00,WSDL version 342,2013-01-23 07:30:00,
2013-01-23 02:35:00,8.3,-18.3,29.56,West,270,3.8,10.3,24,0.00,,,0.00,WSDL version 342,2013-01-23 07:35:00,
2013-01-23 02:40:00,8.1,-18.5,29.56,WNW,289,4.0,8.1,24,0.00,,,0.00,WSDL version 342,2013-01-23 07:40:00,
2013-01-23 02:45:00,8.1,-18.5,29.56,West,260,3.8,8.1,24,0.00,,,0.00,WSDL version 342,2013-01-23 07:45:00,
2013-01-23 02:50:00,8.1,-18.5,29.56,West,266,3.7,9.6,24,0.00,,,0.00,WSDL version 342,2013-01-23 07:50:00,
2013-01-23 02:55:00,8.0,-18.6,29.56,West,276,3.0,9.6,24,0.00,,,0.00,WSDL version 342,2013-01-23 07:55:00,
2013-01-23 03:00:00,7.9,-18.7,29.56,WSW,255,3.6,7.4,24,0.00,,,0.00,WSDL version 342,2013-01-23 08:00:00,
2013-01-23 03:05:00,8.1,-18.5,29.56,West,262,4.4,10.3,24,0.00,,,0.00,WSDL version 342,2013-01-23 08:05:00,
2013-01-23 03:10:00,7.9,-18.7,29.56,WSW,254,3.0,10.3,24,0.00,,,0.00,WSDL version 342,2013-01-23 08:10:00,
2013-01-23 03:17:00,7.7,-18.9,29.56,West,276,2.7,6.5,24,0.00,,,0.00,WSDL version 342,2013-01-23 08:17:00,
2013-01-23 03:23:00,7.6,-19.0,29.56,SW,225,3.2,6.5,24,0.00,,,0.00,WSDL version 342,2013-01-23 08:23:00,
2013-01-23 03:29:00,7.5,-19.0,29.56,West,270,4.0,6.5,24,-99.99,,,-99.99,WSDL version 342,2013-01-23 08:29:00,
2013-01-23 03:34:00,7.7,-18.9,29.56,West,278,3.1,6.3,24,0.00,,,0.00,WSDL version 342,2013-01-23 08:34:00,
2013-01-23 03:39:00,7.5,-19.0,29.56,West,264,2.2,5.4,24,0.00,,,0.00,WSDL version 342,2013-01-23 08:39:00,
2013-01-23 03:44:00,7.6,-19.0,29.56,West,270,4.3,7.6,24,0.00,,,0.00,WSDL version 342,2013-01-23 08:44:00,
2013-01-23 03:49:00,7.7,-18.9,29.56,WSW,257,5.6,7.6,24,0.00,,,0.00,WSDL version 342,2013-01-23 08:49:00,
2013-01-23 03:54:00,7.7,-18.9,29.56,West,260,4.0,7.6,24,-99.99,,,-99.99,WSDL version 342,2013-01-23 08:54:00,
2013-01-23 03:59:00,7.7,-18.9,29.56,West,259,3.9,6.5,24,-99.99,,,-99.99,WSDL version 342,2013-01-23 08:59:00,
2013-01-23 04:04:00,7.7,-18.9,29.56,West,259,2.9,6.5,24,-99.99,,,-99.99,WSDL version 342,2013-01-23 09:04:00,
2013-01-23 04:09:00,7.7,-18.9,29.56,West,267,4.4,7.6,24,0.00,,,0.00,WSDL version 342,2013-01-23 09:09:00,
2013-01-23 04:15:00,7.7,-18.9,29.56,West,259,5.0,7.6,24,0.00,,,0.00,WSDL version 342,2013-01-23 09:15:00,
2013-01-23 04:20:00,7.7,-18.9,29.56,West,270,3.1,7.4,24,0.00,,,0.00,WSDL version 342,2013-01-23 09:20:00,
2013-01-23 04:25:00,7.7,-18.9,29.56,WNW,287,4.6,8.1,24,-99.99,,,-99.99,WSDL version 342,2013-01-23 09:25:00,
2013-01-23 04:30:00,7.6,-19.0,29.59,SW,222,2.5,8.1,24,0.00,,,0.00,WSDL version 342,2013-01-23 09:30:00,
2013-01-23 04:35:00,7.4,-19.1,29.59,West,273,2.8,6.0,24,0.00,,,0.00,WSDL version 342,2013-01-23 09:35:00,
2013-01-23 04:40:00,7.5,-19.0,29.59,WSW,251,4.6,9.6,24,0.00,,,0.00,WSDL version 342,2013-01-23 09:40:00,
2013-01-23 04:45:00,7.5,-19.0,29.59,WSW,256,4.6,9.6,24,0.00,,,0.00,WSDL version 342,2013-01-23 09:45:00,
2013-01-23 04:51:00,7.5,-19.0,29.59,West,263,3.5,7.4,24,0.00,,,0.00,WSDL version 342,2013-01-23 09:51:00,
2013-01-23 04:57:00,7.5,-19.1,29.59,West,276,3.6,6.5,24,0.00,,,0.00,WSDL version 342,2013-01-23 09:57:00,
2013-01-23 05:02:00,7.3,-19.2,29.59,West,261,4.3,5.8,24,0.00,,,0.00,WSDL version 342,2013-01-23 10:02:00,
2013-01-23 05:08:00,7.2,-19.3,29.59,West,270,3.3,5.8,24,0.00,,,0.00,WSDL version 342,2013-01-23 10:08:00,
2013-01-23 05:13:00,7.2,-19.3,29.59,West,274,3.8,7.2,24,0.00,,,0.00,WSDL version 342,2013-01-23 10:13:00,
2013-01-23 05:18:00,7.4,-19.1,29.59,West,270,4.8,8.9,24,0.00,,,0.00,WSDL version 342,2013-01-23 10:18:00,
2013-01-23 05:23:00,7.3,-19.2,29.59,West,264,4.0,8.9,24,0.00,,,0.00,WSDL version 342,2013-01-23 10:23:00,
2013-01-23 05:28:00,7.3,-19.2,29.59,West,278,3.4,5.6,24,0.00,,,0.00,WSDL version 342,2013-01-23 10:28:00,
2013-01-23 05:34:00,7.3,-19.2,29.59,West,262,3.9,7.6,24,0.00,,,0.00,WSDL version 342,2013-01-23 10:34:00,
2013-01-23 05:40:00,7.3,-19.2,29.59,West,264,4.7,8.9,24,0.00,,,0.00,WSDL version 342,2013-01-23 10:40:00,
2013-01-23 05:45:00,7.3,-19.2,29.59,West,270,3.4,8.9,24,0.00,,,0.00,WSDL version 342,2013-01-23 10:45:00,
2013-01-23 05:50:00,7.2,-19.3,29.59,West,273,3.7,7.4,24,0.00,,,0.00,WSDL version 342,2013-01-23 10:50:00,
2013-01-23 05:55:00,7.2,-19.3,29.59,West,267,5.0,8.1,24,0.00,,,0.00,WSDL version 342,2013-01-23 10:55:00,
2013-01-23 06:00:00,7.3,-19.3,29.59,WSW,251,5.7,8.1,24,0.00,,,0.00,WSDL version 342,2013-01-23 11:00:00,
2013-01-23 06:07:00,7.2,-19.3,29.59,West,276,4.0,7.4,24,0.00,,,0.00,WSDL version 342,2013-01-23 11:07:00,
2013-01-23 06:12:00,7.1,-19.4,29.59,West,276,3.1,6.5,24,0.00,,,0.00,WSDL version 342,2013-01-23 11:12:00,
2013-01-23 06:17:00,7.2,-19.3,29.59,West,280,4.0,8.1,24,0.00,,,0.00,WSDL version 342,2013-01-23 11:17:00,
2013-01-23 06:22:00,7.0,-19.5,29.59,West,278,3.5,8.1,24,0.00,,,0.00,WSDL version 342,2013-01-23 11:22:00,
2013-01-23 06:27:00,7.0,-19.5,29.62,West,264,3.8,5.8,24,-99.99,,,-99.99,WSDL version 342,2013-01-23 11:27:00,
2013-01-23 06:32:00,6.9,-19.6,29.62,West,278,4.2,7.4,24,0.00,,,0.00,WSDL version 342,2013-01-23 11:32:00,
2013-01-23 06:37:00,6.8,-19.6,29.62,West,276,3.4,7.4,24,0.00,,,0.00,WSDL version 342,2013-01-23 11:37:00,
2013-01-23 06:42:00,6.8,-19.7,29.62,West,280,4.1,6.3,24,0.00,,,0.00,WSDL version 342,2013-01-23 11:42:00,
2013-01-23 06:47:00,6.8,-19.7,29.62,WNW,284,3.5,6.3,24,0.00,,,0.00,WSDL version 342,2013-01-23 11:47:00,
2013-01-23 06:52:00,6.8,-19.7,29.62,WNW,289,3.9,6.0,24,0.00,,,0.00,WSDL version 342,2013-01-23 11:52:00,
2013-01-23 06:57:00,6.8,-19.7,29.62,West,280,4.0,6.5,24,0.00,,,0.00,WSDL version 342,2013-01-23 11:57:00,
2013-01-23 07:03:00,6.8,-19.7,29.62,West,273,4.1,8.7,24,0.00,,,0.00,WSDL version 342,2013-01-23 12:03:00,
2013-01-23 07:08:00,6.8,-19.7,29.62,West,263,4.3,6.0,24,0.00,,,0.00,WSDL version 342,2013-01-23 12:08:00,
2013-01-23 07:13:00,6.8,-19.7,29.62,West,267,3.8,6.0,24,0.00,,,0.00,WSDL version 342,2013-01-23 12:13:00,
2013-01-23 07:18:00,6.8,-19.7,29.62,West,274,4.0,5.8,24,0.00,,,0.00,WSDL version 342,2013-01-23 12:18:00,
2013-01-23 07:23:00,6.8,-19.7,29.62,West,281,3.6,5.8,24,0.00,,,0.00,WSDL version 342,2013-01-23 12:23:00,
2013-01-23 07:28:00,6.8,-19.7,29.62,West,273,3.9,5.6,24,0.00,,,0.00,WSDL version 342,2013-01-23 12:28:00,
2013-01-23 07:33:00,6.8,-19.7,29.62,West,259,3.5,5.6,24,0.00,,,0.00,WSDL version 342,2013-01-23 12:33:00,
2013-01-23 07:38:00,7.0,-19.5,29.62,WSW,245,3.5,7.4,24,0.00,,,0.00,WSDL version 342,2013-01-23 12:38:00,
2013-01-23 07:43:00,7.1,-19.4,29.62,WSW,239,4.1,7.4,24,0.00,,,0.00,WSDL version 342,2013-01-23 12:43:00,
2013-01-23 07:48:00,7.2,-19.3,29.62,SW,231,3.4,6.5,24,0.00,,,0.00,WSDL version 342,2013-01-23 12:48:00,
2013-01-23 07:53:00,7.5,-19.1,29.62,WSW,248,2.8,5.6,24,0.00,,,0.00,WSDL version 342,2013-01-23 12:53:00,
2013-01-23 07:58:00,7.6,-19.0,29.62,WSW,238,2.2,4.5,24,0.00,,,0.00,WSDL version 342,2013-01-23 12:58:00,
2013-01-23 08:03:00,7.9,-18.7,29.62,WSW,248,3.7,7.2,24,0.00,,,0.00,WSDL version 342,2013-01-23 13:03:00,
2013-01-23 08:08:00,8.2,-18.5,29.62,WSW,253,4.1,7.2,24,0.00,,,0.00,WSDL version 342,2013-01-23 13:08:00,
2013-01-23 08:13:00,8.3,-18.3,29.62,SW,229,4.0,5.4,24,0.00,,,0.00,WSDL version 342,2013-01-23 13:13:00,
2013-01-23 08:18:00,8.4,-18.2,29.62,WSW,250,3.2,8.7,24,0.00,,,0.00,WSDL version 342,2013-01-23 13:18:00,
2013-01-23 08:23:00,8.6,-18.1,29.62,West,270,2.9,8.7,24,0.00,,,0.00,WSDL version 342,2013-01-23 13:23:00,
2013-01-23 08:28:00,8.7,-18.0,29.62,WSW,257,3.4,5.4,24,0.00,,,0.00,WSDL version 342,2013-01-23 13:28:00,
2013-01-23 08:33:00,8.8,-17.9,29.62,WSW,254,3.6,6.5,24,0.00,,,0.00,WSDL version 342,2013-01-23 13:33:00,
2013-01-23 08:38:00,9.2,-17.5,29.62,WSW,239,4.3,7.6,24,-99.99,,,-99.99,WSDL version 342,2013-01-23 13:38:00,
2013-01-23 08:43:00,9.4,-17.3,29.62,WNW,286,5.2,8.1,24,0.00,,,0.00,WSDL version 342,2013-01-23 13:43:00,
2013-01-23 08:48:00,9.6,-17.2,29.62,WSW,244,4.0,8.1,24,0.00,,,0.00,WSDL version 342,2013-01-23 13:48:00,
2013-01-23 08:53:00,9.7,-17.1,29.62,West,276,5.9,7.6,24,0.00,,,0.00,WSDL version 342,2013-01-23 13:53:00,
2013-01-23 08:58:00,9.9,-16.9,29.62,WSW,252,3.6,7.6,24,0.00,,,0.00,WSDL version 342,2013-01-23 13:58:00,
2013-01-23 09:03:00,10.3,-16.6,29.62,SSW,206,5.1,10.1,24,0.00,,,0.00,WSDL version 342,2013-01-23 14:03:00,
2013-01-23 09:09:00,11.1,-15.8,29.62,SW,231,3.2,10.1,24,-99.99,,,-99.99,WSDL version 342,2013-01-23 14:09:00,
2013-01-23 09:14:00,11.5,-15.5,29.62,WSW,255,5.5,11.0,24,0.00,,,0.00,WSDL version 342,2013-01-23 14:14:00,
2013-01-23 09:19:00,11.8,-15.2,29.62,SW,236,5.9,11.0,24,0.00,,,0.00,WSDL version 342,2013-01-23 14:19:00,
2013-01-23 09:24:00,12.0,-15.0,29.62,West,278,5.9,9.6,24,0.00,,,0.00,WSDL version 342,2013-01-23 14:24:00,
2013-01-23 09:29:00,12.0,-15.0,29.62,WNW,289,5.9,10.5,24,-99.99,,,-99.99,WSDL version 342,2013-01-23 14:29:00,
2013-01-23 09:34:00,12.4,-14.7,29.62,SW,225,5.4,10.5,24,0.00,,,0.00,WSDL version 342,2013-01-23 14:34:00,
2013-01-23 09:39:00,13.1,-14.1,29.62,WSW,244,4.0,8.5,24,0.00,,,0.00,WSDL version 342,2013-01-23 14:39:00,
2013-01-23 09:44:00,13.3,-13.9,29.62,West,275,5.9,10.7,24,0.00,,,0.00,WSDL version 342,2013-01-23 14:44:00,
2013-01-23 09:49:00,13.3,-13.9,29.62,West,278,5.7,10.7,24,0.00,,,0.00,WSDL version 342,2013-01-23 14:49:00,
2013-01-23 09:54:00,13.3,-13.9,29.62,West,259,6.3,10.5,24,0.00,,,0.00,WSDL version 342,2013-01-23 14:54:00,
2013-01-23 10:00:00,13.8,-11.0,29.62,WNW,283,5.1,9.6,31,0.00,,,0.00,WSDL version 342,2013-01-23 15:00:00,
2013-01-23 10:05:00,14.4,-9.5,29.62,WSW,248,4.4,7.4,29,0.00,,,0.00,WSDL version 342,2013-01-23 15:05:00,
2013-01-23 10:10:00,15.1,-8.8,29.62,WNW,287,3.9,7.4,29,0.00,,,0.00,WSDL version 342,2013-01-23 15:10:00,
2013-01-23 10:15:00,15.3,-8.7,29.62,WSW,244,6.0,8.7,29,0.00,,,0.00,WSDL version 342,2013-01-23 15:15:00,
2013-01-23 10:20:00,15.7,-8.3,29.62,SW,223,4.1,10.5,29,0.00,,,0.00,WSDL version 342,2013-01-23 15:20:00,
2013-01-23 10:25:00,15.8,-9.5,29.62,West,260,6.5,11.0,26,0.00,,,0.00,WSDL version 342,2013-01-23 15:25:00,
2013-01-23 10:30:00,15.8,-10.2,29.62,WNW,283,5.7,11.0,26,0.00,,,0.00,WSDL version 342,2013-01-23 15:30:00,
2013-01-23 10:35:00,15.8,-10.2,29.62,SW,235,5.9,9.8,26,0.00,,,0.00,WSDL version 342,2013-01-23 15:35:00,
2013-01-23 10:40:00,16.7,-9.5,29.62,SW,231,4.4,9.6,26,0.00,,,0.00,WSDL version 342,2013-01-23 15:40:00,
2013-01-23 10:45:00,17.1,-9.1,29.62,West,264,3.1,9.6,26,-99.99,,,-99.99,WSDL version 342,2013-01-23 15:45:00,
2013-01-23 10:50:00,17.7,-9.1,29.62,WSW,253,6.2,12.8,25,0.00,,,0.00,WSDL version 342,2013-01-23 15:50:00,
2013-01-23 10:55:00,18.4,-8.6,29.62,SW,222,3.7,12.8,25,0.00,,,0.00,WSDL version 342,2013-01-23 15:55:00,
2013-01-23 11:00:00,19.0,-8.1,29.62,SW,222,5.3,10.3,25,0.00,,,0.00,WSDL version 342,2013-01-23 16:00:00,
2013-01-23 11:05:00,18.7,-8.3,29.62,West,264,6.7,12.3,25,0.00,,,0.00,WSDL version 342,2013-01-23 16:05:00,
2013-01-23 11:10:00,17.8,-9.1,29.62,West,259,6.2,12.3,25,0.00,,,0.00,WSDL version 342,2013-01-23 16:10:00,
2013-01-23 11:15:00,17.6,-8.8,29.59,SW,225,4.9,10.7,25,0.00,,,0.00,WSDL version 342,2013-01-23 16:15:00,
2013-01-23 11:20:00,17.6,-8.8,29.59,West,262,6.5,10.5,26,0.00,,,0.00,WSDL version 342,2013-01-23 16:20:00,
2013-01-23 11:25:00,17.4,-8.8,29.59,West,263,6.3,10.5,26,-99.99,,,-99.99,WSDL version 342,2013-01-23 16:25:00,
2013-01-23 11:31:00,18.1,-8.8,29.59,West,262,6.2,10.1,25,0.00,,,0.00,WSDL version 342,2013-01-23 16:31:00,
2013-01-23 11:36:00,18.1,-8.9,29.59,West,278,6.9,13.0,25,0.00,,,0.00,WSDL version 342,2013-01-23 16:36:00,
2013-01-23 11:41:00,17.7,-8.7,29.59,WSW,251,6.2,13.0,26,0.00,,,0.00,WSDL version 342,2013-01-23 16:41:00,
2013-01-23 11:46:00,17.4,-8.8,29.59,WSW,254,5.8,11.2,26,0.00,,,0.00,WSDL version 342,2013-01-23 16:46:00,
2013-01-23 11:51:00,17.6,-8.9,29.59,SW,225,6.3,10.7,26,0.00,,,0.00,WSDL version 342,2013-01-23 16:51:00,
2013-01-23 11:56:00,17.8,-8.9,29.59,SW,235,6.1,10.7,26,-99.99,,,-99.99,WSDL version 342,2013-01-23 16:56:00,
2013-01-23 12:01:00,17.3,-8.9,29.59,WNW,289,7.8,13.6,26,0.00,,,0.00,WSDL version 342,2013-01-23 17:01:00,
2013-01-23 12:06:00,17.9,-8.7,29.59,WSW,244,4.9,13.6,25,0.00,,,0.00,WSDL version 342,2013-01-23 17:06:00,
2013-01-23 12:11:00,18.6,-8.5,29.59,WSW,253,6.0,10.7,25,0.00,,,0.00,WSDL version 342,2013-01-23 17:11:00,
2013-01-23 12:16:00,18.7,-8.4,29.56,WNW,285,6.3,10.7,25,0.00,,,0.00,WSDL version 342,2013-01-23 17:16:00,
2013-01-23 12:21:00,17.8,-8.7,29.56,WNW,290,6.3,10.1,26,0.00,,,0.00,WSDL version 342,2013-01-23 17:21:00,
2013-01-23 12:26:00,17.4,-8.8,29.56,West,266,5.3,10.1,26,0.00,,,0.00,WSDL version 342,2013-01-23 17:26:00,
2013-01-23 12:31:00,17.0,-9.1,29.56,West,278,6.2,8.5,26,0.00,,,0.00,WSDL version 342,2013-01-23 17:31:00,
2013-01-23 12:36:00,16.9,-9.3,29.56,WSW,254,8.0,13.2,26,0.00,,,0.00,WSDL version 342,2013-01-23 17:36:00,
2013-01-23 12:41:00,17.1,-9.1,29.56,SW,230,6.5,13.2,26,0.00,,,0.00,WSDL version 342,2013-01-23 17:41:00,
2013-01-23 12:46:00,17.4,-8.8,29.56,West,274,5.1,12.1,26,-99.99,,,-99.99,WSDL version 342,2013-01-23 17:46:00,
2013-01-23 12:51:00,17.4,-8.8,29.56,West,278,8.3,15.7,26,0.00,,,0.00,WSDL version 342,2013-01-23 17:51:00,
2013-01-23 12:56:00,16.8,-9.3,29.56,WNW,288,6.2,15.7,26,0.00,,,0.00,WSDL version 342,2013-01-23 17:56:00,
2013-01-23 13:01:00,17.8,-8.9,29.56,WSW,251,3.3,9.6,25,0.00,,,0.00,WSDL version 342,2013-01-23 18:01:00,
2013-01-23 13:06:00,18.9,-8.2,29.56,WSW,257,6.1,10.1,25,0.00,,,0.00,WSDL version 342,2013-01-23 18:06:00,
2013-01-23 13:11:00,18.0,-8.8,29.56,WSW,244,6.5,11.2,26,0.00,,,0.00,WSDL version 342,2013-01-23 18:11:00,
2013-01-23 13:16:00,16.8,-9.3,29.59,West,259,4.5,11.2,26,0.00,,,0.00,WSDL version 342,2013-01-23 18:16:00,
2013-01-23 13:21:00,16.8,-9.3,29.59,West,273,5.0,11.0,26,0.00,,,0.00,WSDL version 342,2013-01-23 18:21:00,
2013-01-23 13:26:00,16.2,-9.9,29.59,WSW,244,4.3,9.6,26,0.00,,,0.00,WSDL version 342,2013-01-23 18:26:00,
2013-01-23 13:31:00,16.1,-10.0,29.56,West,281,6.6,8.1,26,0.00,,,0.00,WSDL version 342,2013-01-23 18:31:00,
2013-01-23 13:37:00,16.4,-9.7,29.56,WNW,283,5.0,10.1,26,0.00,,,0.00,WSDL version 342,2013-01-23 18:37:00,
2013-01-23 13:42:00,18.4,-8.4,29.56,WNW,299,4.1,10.1,25,0.00,,,0.00,WSDL version 342,2013-01-23 18:42:00,
2013-01-23 13:48:00,19.5,-7.7,29.56,WSW,244,4.2,10.7,25,0.00,,,0.00,WSDL version 342,2013-01-23 18:48:00,
2013-01-23 13:53:00,19.7,-7.5,29.56,West,267,5.8,10.7,25,0.00,,,0.00,WSDL version 342,2013-01-23 18:53:00,
2013-01-23 13:58:00,19.7,-7.4,29.56,West,280,4.7,10.5,25,0.00,,,0.00,WSDL version 342,2013-01-23 18:58:00,
2013-01-23 14:03:00,19.3,-7.8,29.56,West,270,4.9,10.5,25,0.00,,,0.00,WSDL version 342,2013-01-23 19:03:00,
2013-01-23 14:08:00,18.6,-8.4,29.56,West,281,4.0,8.7,25,0.00,,,0.00,WSDL version 342,2013-01-23 19:08:00,
2013-01-23 14:13:00,18.3,-8.7,29.53,WSW,254,5.6,10.5,25,0.00,,,0.00,WSDL version 342,2013-01-23 19:13:00,
2013-01-23 14:18:00,18.9,-8.2,29.53,West,260,6.1,10.7,25,0.00,,,0.00,WSDL version 342,2013-01-23 19:18:00,
2013-01-23 14:23:00,18.8,-8.3,29.53,WNW,298,5.4,10.7,25,0.00,,,0.00,WSDL version 342,2013-01-23 19:23:00,
2013-01-23 14:28:00,19.2,-7.9,29.56,WSW,241,5.7,10.1,25,0.00,,,0.00,WSDL version 342,2013-01-23 19:28:00,
2013-01-23 14:33:00,19.2,-7.9,29.56,SW,235,4.0,7.8,25,0.00,,,0.00,WSDL version 342,2013-01-23 19:33:00,
2013-01-23 14:38:00,19.5,-7.6,29.56,WNW,302,5.8,10.7,25,0.00,,,0.00,WSDL version 342,2013-01-23 19:38:00,
2013-01-23 14:43:00,19.7,-7.4,29.56,West,270,4.1,10.7,25,0.00,,,0.00,WSDL version 342,2013-01-23 19:43:00,
2013-01-23 14:48:00,20.0,-7.2,29.56,West,276,5.0,7.8,25,0.00,,,0.00,WSDL version 342,2013-01-23 19:48:00,
2013-01-23 14:53:00,19.2,-7.9,29.56,WSW,256,4.4,9.8,25,0.00,,,0.00,WSDL version 342,2013-01-23 19:53:00,
2013-01-23 14:58:00,19.3,-7.8,29.59,West,276,5.9,10.7,25,0.00,,,0.00,WSDL version 342,2013-01-23 19:58:00,
2013-01-23 15:03:00,18.9,-8.2,29.59,West,281,5.6,11.0,25,0.00,,,0.00,WSDL version 342,2013-01-23 20:03:00,
2013-01-23 15:08:00,18.4,-8.6,29.59,WNW,287,4.8,11.0,25,0.00,,,0.00,WSDL version 342,2013-01-23 20:08:00,
2013-01-23 15:13:00,17.2,-9.0,29.56,West,264,7.8,12.5,26,0.00,,,0.00,WSDL version 342,2013-01-23 20:13:00,
2013-01-23 15:18:00,16.8,-9.3,29.56,West,276,6.8,12.5,26,0.00,,,0.00,WSDL version 342,2013-01-23 20:18:00,
2013-01-23 15:23:00,16.3,-9.7,29.56,West,278,4.9,8.5,26,0.00,,,0.00,WSDL version 342,2013-01-23 20:23:00,
2013-01-23 15:28:00,15.8,-10.2,29.56,West,276,3.0,6.5,26,0.00,,,0.00,WSDL version 342,2013-01-23 20:28:00,
2013-01-23 15:35:00,15.4,-10.6,29.56,West,276,3.7,6.0,26,0.00,,,0.00,WSDL version 342,2013-01-23 20:35:00,
2013-01-23 15:40:00,15.4,-10.6,29.56,WNW,293,4.2,5.4,26,0.00,,,0.00,WSDL version 342,2013-01-23 20:40:00,
2013-01-23 15:45:00,15.2,-10.7,29.56,West,281,3.5,8.5,26,0.00,,,0.00,WSDL version 342,2013-01-23 20:45:00,
2013-01-23 15:50:00,15.2,-10.8,29.56,West,274,3.2,8.5,26,0.00,,,0.00,WSDL version 342,2013-01-23 20:50:00,
2013-01-23 15:55:00,15.2,-10.8,29.56,WNW,283,4.2,6.5,26,0.00,,,0.00,WSDL version 342,2013-01-23 20:55:00,
2013-01-23 16:00:00,15.0,-10.9,29.56,WNW,289,5.9,7.6,26,0.00,,,0.00,WSDL version 342,2013-01-23 21:00:00,
2013-01-23 16:05:00,14.9,-10.0,29.56,West,281,6.3,8.5,29,0.00,,,0.00,WSDL version 342,2013-01-23 21:05:00,
2013-01-23 16:11:00,14.9,-9.0,29.56,WNW,289,3.3,8.5,29,0.00,,,0.00,WSDL version 342,2013-01-23 21:11:00,
2013-01-23 16:16:00,14.8,-8.7,29.56,West,280,4.5,6.5,31,0.00,,,0.00,WSDL version 342,2013-01-23 21:16:00,
2013-01-23 16:21:00,14.7,-8.0,29.56,West,274,3.6,6.5,31,0.00,,,0.00,WSDL version 342,2013-01-23 21:21:00,
2013-01-23 16:27:00,14.4,-8.3,29.56,WNW,285,3.4,5.8,31,0.00,,,0.00,WSDL version 342,2013-01-23 21:27:00,
2013-01-23 16:32:00,14.2,-8.5,29.56,West,276,3.7,5.8,31,0.00,,,0.00,WSDL version 342,2013-01-23 21:32:00,
2013-01-23 16:37:00,13.9,-8.1,29.56,WNW,299,3.4,5.8,32,0.00,,,0.00,WSDL version 342,2013-01-23 21:37:00,
2013-01-23 16:42:00,13.8,-8.2,29.56,West,280,2.9,5.8,32,0.00,,,0.00,WSDL version 342,2013-01-23 21:42:00,
2013-01-23 16:47:00,13.8,-8.2,29.56,West,259,2.8,4.3,32,0.00,,,0.00,WSDL version 342,2013-01-23 21:47:00,
2013-01-23 16:52:00,13.6,-8.4,29.56,West,266,2.3,5.4,32,0.00,,,0.00,WSDL version 342,2013-01-23 21:52:00,
2013-01-23 16:57:00,13.5,-8.5,29.56,WSW,253,3.5,5.8,32,0.00,,,0.00,WSDL version 342,2013-01-23 21:57:00,
2013-01-23 17:02:00,13.4,-8.6,29.56,WNW,296,2.8,5.8,32,0.00,,,0.00,WSDL version 342,2013-01-23 22:02:00,
2013-01-23 17:07:00,13.2,-8.8,29.56,WSW,251,2.6,5.6,32,0.00,,,0.00,WSDL version 342,2013-01-23 22:07:00,
2013-01-23 17:12:00,12.9,-9.0,29.56,WNW,288,2.1,4.3,32,0.00,,,0.00,WSDL version 342,2013-01-23 22:12:00,
2013-01-23 17:17:00,12.9,-9.0,29.56,WNW,284,2.6,4.7,32,0.00,,,0.00,WSDL version 342,2013-01-23 22:17:00,
2013-01-23 17:22:00,12.9,-9.1,29.56,WNW,293,2.1,4.7,32,0.00,,,0.00,WSDL version 342,2013-01-23 22:22:00,
2013-01-23 17:27:00,12.7,-9.2,29.56,WNW,289,3.2,5.6,32,0.00,,,0.00,WSDL version 342,2013-01-23 22:27:00,
2013-01-23 17:33:00,12.6,-9.3,29.56,West,270,3.1,5.6,32,0.00,,,0.00,WSDL version 342,2013-01-23 22:33:00,
2013-01-23 17:38:00,12.5,-9.4,29.56,West,270,1.8,4.7,32,-99.99,,,-99.99,WSDL version 342,2013-01-23 22:38:00,
2013-01-23 17:43:00,12.2,-9.7,29.56,WNW,286,1.3,3.1,32,0.00,,,0.00,WSDL version 342,2013-01-23 22:43:00,
2013-01-23 17:48:00,11.9,-9.9,29.56,WNW,286,1.3,2.5,32,0.00,,,0.00,WSDL version 342,2013-01-23 22:48:00,
2013-01-23 17:53:00,11.7,-10.1,29.56,West,281,0.7,2.0,32,0.00,,,0.00,WSDL version 342,2013-01-23 22:53:00,
2013-01-23 17:58:00,11.5,-10.3,29.56,WSW,248,0.0,2.0,32,0.00,,,0.00,WSDL version 342,2013-01-23 22:58:00,
2013-01-23 18:03:00,11.2,-10.6,29.56,West,259,1.8,2.2,32,0.00,,,0.00,WSDL version 342,2013-01-23 23:03:00,
2013-01-23 18:08:00,11.1,-10.6,29.56,West,267,2.1,3.1,32,0.00,,,0.00,WSDL version 342,2013-01-23 23:08:00,
2013-01-23 18:13:00,11.2,-10.6,29.56,West,279,2.5,3.8,32,0.00,,,0.00,WSDL version 342,2013-01-23 23:13:00,
2013-01-23 18:18:00,11.1,-10.6,29.56,West,264,2.2,3.8,32,-99.99,,,-99.99,WSDL version 342,2013-01-23 23:18:00,
2013-01-23 18:23:00,11.2,-10.6,29.56,West,276,1.8,3.1,32,0.00,,,0.00,WSDL version 342,2013-01-23 23:23:00,
2013-01-23 18:28:00,11.1,-10.6,29.56,WNW,290,2.5,3.4,32,-99.99,,,-99.99,WSDL version 342,2013-01-23 23:28:00,
2013-01-23 18:33:00,11.0,-10.8,29.56,WNW,296,1.6,3.4,32,0.00,,,0.00,WSDL version 342,2013-01-23 23:33:00,
2013-01-23 18:38:00,11.1,-10.7,29.56,WSW,248,2.1,4.0,32,0.00,,,0.00,WSDL version 342,2013-01-23 23:38:00,
2013-01-23 18:43:00,10.9,-10.9,29.56,West,259,1.4,4.0,32,0.00,,,0.00,WSDL version 342,2013-01-23 23:43:00,
2013-01-23 18:48:00,10.8,-11.0,29.56,West,266,1.6,3.1,32,0.00,,,0.00,WSDL version 342,2013-01-23 23:48:00,
2013-01-23 18:53:00,10.5,-11.2,29.56,West,270,1.3,3.1,32,0.00,,,0.00,WSDL version 342,2013-01-23 23:53:00,
2013-01-23 18:58:00,10.3,-11.4,29.56,WNW,293,1.5,2.5,32,0.00,,,0.00,WSDL version 342,2013-01-23 23:58:00,
2013-01-23 19:03:00,10.1,-11.5,29.56,WNW,293,1.6,2.5,32,0.00,,,0.00,WSDL version 342,2013-01-24 00:03:00,
2013-01-23 19:08:00,10.0,-11.7,29.56,WNW,293,1.2,2.0,32,0.00,,,0.00,WSDL version 342,2013-01-24 00:08:00,
2013-01-23 19:13:00,9.7,-12.0,29.56,WNW,293,1.4,2.0,32,0.00,,,0.00,WSDL version 342,2013-01-24 00:13:00,
2013-01-23 19:18:00,9.7,-12.0,29.56,WNW,293,1.5,2.0,32,0.00,,,0.00,WSDL version 342,2013-01-24 00:18:00,
2013-01-23 19:23:00,9.5,-12.1,29.56,WNW,293,1.0,2.0,32,0.00,,,0.00,WSDL version 342,2013-01-24 00:23:00,
2013-01-23 19:28:00,9.4,-12.3,29.50,WSW,248,0.0,2.0,32,-99.99,,,-99.99,WSDL version 342,2013-01-24 00:28:00,
2013-01-23 19:33:00,9.2,-12.4,29.50,WSW,248,1.4,2.0,32,-99.99,,,-99.99,WSDL version 342,2013-01-24 00:33:00,
2013-01-23 19:39:00,9.1,-12.5,29.50,West,267,1.3,2.0,32,-99.99,,,-99.99,WSDL version 342,2013-01-24 00:39:00,
2013-01-23 19:44:00,8.8,-12.8,29.50,West,270,1.1,1.6,32,0.00,,,0.00,WSDL version 342,2013-01-24 00:44:00,
2013-01-23 19:49:00,8.6,-12.9,29.50,West,270,0.0,1.3,32,0.00,,,0.00,WSDL version 342,2013-01-24 00:49:00,
2013-01-23 19:54:00,8.5,-13.1,29.50,West,270,0.0,1.6,32,0.00,,,0.00,WSDL version 342,2013-01-24 00:54:00,
2013-01-23 19:59:00,8.2,-13.3,29.50,West,270,1.3,1.6,32,0.00,,,0.00,WSDL version 342,2013-01-24 00:59:00,
2013-01-23 20:04:00,8.1,-13.4,29.50,West,270,1.3,1.6,32,0.00,,,0.00,WSDL version 342,2013-01-24 01:04:00,
2013-01-23 20:09:00,7.9,-13.6,29.50,West,281,1.5,2.5,32,0.00,,,0.00,WSDL version 342,2013-01-24 01:09:00,
2013-01-23 20:14:00,7.9,-13.6,29.50,WNW,293,1.8,2.5,32,0.00,,,0.00,WSDL version 342,2013-01-24 01:14:00,
2013-01-23 20:19:00,7.9,-13.6,29.50,WNW,293,1.3,2.5,32,-99.99,,,-99.99,WSDL version 342,2013-01-24 01:19:00,
2013-01-23 20:24:00,7.8,-13.7,29.50,WNW,293,1.2,2.5,32,-99.99,,,-99.99,WSDL version 342,2013-01-24 01:24:00,
2013-01-23 20:29:00,7.5,-13.9,29.50,WNW,293,1.4,1.6,32,0.00,,,0.00,WSDL version 342,2013-01-24 01:29:00,
2013-01-23 20:34:00,7.4,-14.0,29.50,WNW,293,1.1,1.6,32,0.00,,,0.00,WSDL version 342,2013-01-24 01:34:00,
2013-01-23 20:39:00,7.2,-14.3,29.50,WNW,293,1.2,1.6,32,0.00,,,0.00,WSDL version 342,2013-01-24 01:39:00,
2013-01-23 20:44:00,7.1,-14.3,29.50,WNW,293,0.2,1.6,32,0.00,,,0.00,WSDL version 342,2013-01-24 01:44:00,
2013-01-23 20:50:00,6.9,-14.5,29.50,WNW,293,1.1,1.6,32,0.00,,,0.00,WSDL version 342,2013-01-24 01:50:00,
2013-01-23 20:55:00,6.7,-14.7,29.50,WNW,293,0.0,1.3,32,0.00,,,0.00,WSDL version 342,2013-01-24 01:55:00,
2013-01-23 21:00:00,6.4,-14.9,29.50,WNW,293,0.0,1.3,32,-99.99,,,-99.99,WSDL version 342,2013-01-24 02:00:00,
2013-01-23 21:06:00,6.6,-14.8,29.50,WNW,293,0.0,0.0,32,0.00,,,0.00,WSDL version 342,2013-01-24 02:06:00,
2013-01-23 21:11:00,6.8,-14.6,29.50,West,270,0.0,0.0,32,-99.99,,,-99.99,WSDL version 342,2013-01-24 02:11:00,
2013-01-23 21:16:00,6.9,-14.5,29.50,West,270,0.0,0.0,32,-99.99,,,-99.99,WSDL version 342,2013-01-24 02:16:00,
2013-01-23 21:21:00,6.6,-14.8,29.50,West,270,0.0,0.0,32,-99.99,,,-99.99,WSDL version 342,2013-01-24 02:21:00,
2013-01-23 21:26:00,6.4,-14.9,29.50,West,281,0.0,2.0,32,-99.99,,,-99.99,WSDL version 342,2013-01-24 02:26:00,
2013-01-23 21:31:00,6.4,-15.0,29.50,WNW,293,0.6,2.0,32,0.00,,,0.00,WSDL version 342,2013-01-24 02:31:00,
2013-01-23 21:36:00,6.3,-15.1,29.50,WNW,293,0.0,1.6,32,-99.99,,,-99.99,WSDL version 342,2013-01-24 02:36:00,
2013-01-23 21:41:00,6.1,-15.2,29.50,WNW,293,0.0,0.9,32,0.00,,,0.00,WSDL version 342,2013-01-24 02:41:00,
2013-01-23 21:46:00,5.9,-15.4,29.50,WNW,293,0.0,0.0,32,-99.99,,,-99.99,WSDL version 342,2013-01-24 02:46:00,
2013-01-23 21:51:00,5.7,-15.6,29.50,West,270,0.0,0.0,32,-99.99,,,-99.99,WSDL version 342,2013-01-24 02:51:00,
2013-01-23 21:56:00,5.9,-15.4,29.50,West,270,0.0,0.0,32,-99.99,,,-99.99,WSDL version 342,2013-01-24 02:56:00,
2013-01-23 22:01:00,5.9,-15.4,29.50,SW,235,0.0,1.6,32,-99.99,,,-99.99,WSDL version 342,2013-01-24 03:01:00,
2013-01-23 22:06:00,5.9,-15.4,29.50,West,270,0.0,1.6,32,0.00,,,0.00,WSDL version 342,2013-01-24 03:06:00,
2013-01-23 22:11:00,5.8,-15.5,29.50,WNW,293,0.0,0.0,32,-99.99,,,-99.99,WSDL version 342,2013-01-24 03:11:00,
2013-01-23 22:16:00,5.7,-15.6,29.50,WNW,293,0.0,0.0,32,-99.99,,,-99.99,WSDL version 342,2013-01-24 03:16:00,
2013-01-23 22:21:00,5.6,-15.6,29.50,WNW,293,0.0,0.0,32,0.00,,,0.00,WSDL version 342,2013-01-24 03:21:00,
2013-01-23 22:26:00,5.8,-15.5,29.50,WNW,293,0.0,0.0,32,-99.99,,,-99.99,WSDL version 342,2013-01-24 03:26:00,
2013-01-23 22:31:00,5.9,-15.4,29.50,WNW,293,0.0,0.0,32,-99.99,,,-99.99,WSDL version 342,2013-01-24 03:31:00,
2013-01-23 22:36:00,5.9,-15.4,29.50,WNW,293,0.0,0.0,32,0.00,,,0.00,WSDL version 342,2013-01-24 03:36:00,
2013-01-23 22:41:00,6.0,-15.3,29.50,WNW,293,0.0,0.0,32,-99.99,,,-99.99,WSDL version 342,2013-01-24 03:41:00,
2013-01-23 22:46:00,6.2,-15.2,29.50,WNW,293,0.0,0.0,32,0.00,,,0.00,WSDL version 342,2013-01-24 03:46:00,
2013-01-23 22:51:00,6.3,-15.1,29.50,WNW,293,0.0,0.0,32,-99.99,,,-99.99,WSDL version 342,2013-01-24 03:51:00,
2013-01-23 22:56:00,6.4,-15.0,29.50,WNW,302,0.0,0.0,32,0.00,,,0.00,WSDL version 342,2013-01-24 03:56:00,
2013-01-23 23:01:00,6.5,-14.9,29.50,WNW,293,0.0,1.3,32,-99.99,,,-99.99,WSDL version 342,2013-01-24 04:01:00,
2013-01-23 23:06:00,6.7,-14.7,29.50,WNW,299,0.0,1.3,32,-99.99,,,-99.99,WSDL version 342,2013-01-24 04:06:00,
2013-01-23 23:11:00,6.8,-14.6,29.50,WNW,293,0.0,0.0,32,-99.99,,,-99.99,WSDL version 342,2013-01-24 04:11:00,
2013-01-23 23:16:00,6.8,-14.6,29.50,WNW,293,0.0,0.0,32,-99.99,,,-99.99,WSDL version 342,2013-01-24 04:16:00,
2013-01-23 23:21:00,7.0,-14.4,29.50,WNW,293,0.0,0.0,32,0.00,,,0.00,WSDL version 342,2013-01-24 04:21:00,
2013-01-23 23:27:00,7.2,-14.3,29.50,WNW,293,0.0,0.0,32,-99.99,,,-99.99,WSDL version 342,2013-01-24 04:27:00,
2013-01-23 23:32:00,7.2,-14.3,29.50,WNW,293,0.0,0.0,32,-99.99,,,-99.99,WSDL version 342,2013-01-24 04:32:00,
2013-01-23 23:37:00,7.3,-14.1,29.50,WSW,248,0.0,0.0,32,-99.99,,,-99.99,WSDL version 342,2013-01-24 04:37:00,
2013-01-23 23:42:00,7.5,-14.0,29.47,WSW,248,0.0,0.0,32,-99.99,,,-99.99,WSDL version 342,2013-01-24 04:42:00,
2013-01-23 23:47:00,7.5,-13.9,29.47,WSW,248,0.0,0.0,32,-99.99,,,-99.99,WSDL version 342,2013-01-24 04:47:00,
2013-01-23 23:52:00,7.5,-13.9,29.47,WSW,248,0.0,0.0,32,-99.99,,,-99.99,WSDL version 342,2013-01-24 04:52:00,
2013-01-23 23:57:00,7.5,-13.9,29.47,WSW,248,0.0,0.0,32,-99.99,,,-99.99,WSDL version 342,2013-01-24 04:57:00,